West Renovo, Pennsylvania
Current Conditions -  °F | °C
As of 3:15 AM on Monday 24 Nov 2014 (Local Time) from KN38 Reporting Station
Light Rain Light Rain  
Wind Chill: 42°   Ceiling: 700
Heat Index: 48°   Visibility: 2mi
Dew Point: 48°   Wind: 18mph
Humidity: 100%   Direction: 200°SSW
Pressure: 29.55"   Gusts: NA
Location:  41.3916°N, 77.7796°W
Report Text: KN38 240815Z AUTO 20016KT 2SM -RA OVC007 09/09 A2955 RMK AO2
Loading
Personal Weather Stations






























Interactive Weather Map New forecast layout! Learn more

10-Day Weather Forecast

Advertisements
Track Severe Weather on mobile